Homestead, FL

2:11 PM EDT on June 21, 2018 (GMT -0400)
Leisure City | | Change Station

Elev 23 ft 25.49 °N, 80.43 °W | Updated 11 seconds ago

Mostly Cloudy
Mostly Cloudy
89.1 °F
Feels Like 99 °F
N
8.9
Wind Variable Wind from South
Gusts 10.1 mph

Today
High -- | Low -- °F
--% Chance of Precip.
Yesterday
High -- | Low -- °F
Precip. -- in
Pressure 29.95 in
Visibility 10.0 miles
Clouds Scattered Clouds 4300 ft
Mostly Cloudy 5000 ft
Mostly Cloudy 8000 ft
Mostly Cloudy 13000 ft
Mostly Cloudy 18000 ft
Heat Index 99 °F
Dew Point 75 °F
Humidity 63%
Rainfall 0.00 in
Snow Depth Not available.
6:31 AM 8:15 PM
Waxing Gibbous, 64% visible
SPECI KHST 211800Z 17008KT 10SM TS SCT043 BKN050CB BKN080 BKN130 BKN180 31/24 A2994 RMK TS SE AND W MOV E SLP142
Pressure 29.95 in
Visibility 10.0 miles
Clouds Scattered Clouds 4300 ft
Mostly Cloudy 5000 ft
Mostly Cloudy 8000 ft
Mostly Cloudy 13000 ft
Mostly Cloudy 18000 ft
Heat Index 99 °F
Dew Point 75 °F
Humidity 63%
Rainfall 0.00 in
Snow Depth Not available.
6:31 AM 8:15 PM
Waxing Gibbous, 64% visible
SPECI KHST 211800Z 17008KT 10SM TS SCT043 BKN050CB BKN080 BKN130 BKN180 31/24 A2994 RMK TS SE AND W MOV E SLP142

Get Severe Weather Alerts

Thanks for signing up!

Be on the lookout for a verification email in your inbox.

You'll start receiving the daily forecast at 6 AM.

×

10-Day Weather Forecast

Almanac

Astronomy

Jun. 21, 2018 Rise Set
Actual Time
Civil Twilight
Nautical Twilight
Astronomical Twilight
Moon
Length of Visible Light
Length of Day
Tomorrow will be .
, % of the Moon is Illuminated

Today's Extremes

State Highs State Lows

Community

WunderPhotos

Category 6

Welcome to Category 6. This is the collective home for Weather Underground's featured writeups by Dr. Jeff Masters (right), Bob Henson (left), Chris Burt, and other regular contributors.

Nearby

Air Quality

  Air Quality AQ Index Pollutant
Not available.

Snow Depth

Station Depth Elevation

Earthquake Activity

City Distance Mag. Time & Date
Minimum magnitude displayed is 2.5.

Coastal Water Temperatures

Place Temperature

Stations

Nearby Weather Stations

Station Location Temp. Windchill Dew Point Humidity Wind Precip. Elev Updated Type
                   

Watches & Warnings

There are currently no watches in effect.